Time;durP1;ratioP1;P1;durP2;ratioP2;P2;SDS_P1;SDS_P2;PMS_P1;PMS_P2;Temp;Humidity;BMP_temperature;BMP_pressure;BME280_temperature;BME280_humidity;BME280_pressure;Samples;Min_cycle;Max_cycle;Signal;HPM_P1;HPM_P2
2022/08/17 00:01:04;;;;;;;10.23;8.80;;;19.30;99.90;;;;;;5056204;28;20045;-73
2022/08/17 00:03:37;;;;;;;13.80;9.82;;;19.20;99.90;;;;;;5055993;28;20501;-74
2022/08/17 00:06:07;;;;;;;14.13;9.70;;;19.20;99.90;;;;;;5056106;28;20491;-74
2022/08/17 00:08:40;;;;;;;14.70;9.80;;;19.10;99.90;;;;;;5039346;28;20051;-70
2022/08/17 00:11:20;;;;;;;13.88;10.02;;;19.00;99.90;;;;;;5055631;28;20458;-70
2022/08/17 00:13:51;;;;;;;13.93;10.73;;;19.20;99.90;;;;;;5055623;28;20033;-74
2022/08/17 00:16:19;;;;;;;;;;;19.00;99.90;;;;;;5039445;28;20076;-73
2022/08/17 00:18:46;;;;;;;15.10;9.50;;;19.00;99.90;;;;;;5055592;28;19917;-73
2022/08/17 00:21:13;;;;;;;14.27;10.07;;;18.90;99.90;;;;;;5055542;28;20384;-74
2022/08/17 00:23:41;;;;;;;17.95;11.13;;;19.20;99.90;;;;;;5039123;28;20040;-70
2022/08/17 00:26:08;;;;;;;16.85;11.30;;;19.10;99.90;;;;;;5038832;28;20051;-70
2022/08/17 00:28:34;;;;;;;17.35;11.35;;;19.10;99.90;;;;;;5038744;28;20407;-74
2022/08/17 00:30:59;;;;;;;15.35;10.65;;;19.20;99.90;;;;;;5055309;28;20044;-71
2022/08/17 00:33:28;;;;;;;16.48;11.48;;;19.10;99.90;;;;;;5038472;28;20044;-73
2022/08/17 00:35:55;;;;;;;18.13;12.27;;;19.10;99.90;;;;;;5055537;28;20445;-73
2022/08/17 00:38:22;;;;;;;21.13;12.35;;;19.20;99.90;;;;;;5055146;28;20079;-74
2022/08/17 00:40:52;;;;;;;17.85;12.13;;;19.20;99.90;;;;;;5022365;28;20040;-73
2022/08/17 00:43:29;;;;;;;21.65;12.82;;;19.10;99.90;;;;;;5055239;28;20047;-74
2022/08/17 00:45:55;;;;;;;16.98;12.18;;;19.20;99.90;;;;;;5038617;28;20097;-73
2022/08/17 00:48:21;;;;;;;16.77;12.15;;;19.20;99.90;;;;;;5038475;28;20047;-73
2022/08/17 00:51:01;;;;;;;19.65;12.93;;;19.00;99.90;;;;;;5038446;28;20044;-74
2022/08/17 00:53:31;;;;;;;20.45;12.57;;;19.30;99.90;;;;;;5055380;28;20036;-74
2022/08/17 00:56:00;;;;;;;19.57;12.27;;;19.00;99.90;;;;;;5054988;28;20071;-73
2022/08/17 00:58:26;;;;;;;17.40;11.25;;;18.90;99.90;;;;;;5055023;28;20040;-74
2022/08/17 01:00:52;;;;;;;14.77;10.50;;;18.90;99.90;;;;;;5038544;28;20067;-74
2022/08/17 01:03:21;;;;;;;18.02;11.27;;;19.10;99.90;;;;;;5054899;28;20040;-74
2022/08/17 01:05:51;;;;;;;15.57;9.80;;;18.80;99.90;;;;;;5038665;28;20426;-74
2022/08/17 01:08:21;;;;;;;15.60;10.57;;;18.80;99.90;;;;;;5055205;28;20049;-73
2022/08/17 01:10:49;;;;;;;18.35;11.10;;;18.80;99.90;;;;;;5038344;28;20037;-73
2022/08/17 01:13:16;;;;;;;16.88;11.02;;;18.90;99.90;;;;;;5038318;28;20094;-71
2022/08/17 01:16:03;;;;;;;17.73;11.48;;;18.80;99.90;;;;;;5054884;28;20063;-71
2022/08/17 01:18:30;;;;;;;15.52;10.82;;;18.70;99.90;;;;;;5054877;28;20083;-73
2022/08/17 01:21:00;;;;;;;16.17;11.38;;;18.80;99.90;;;;;;5055101;28;20565;-73
2022/08/17 01:23:27;;;;;;;16.40;11.73;;;18.80;99.90;;;;;;5055104;28;20044;-73
2022/08/17 01:26:00;;;;;;;16.48;11.73;;;18.80;99.90;;;;;;5054772;28;20384;-74
2022/08/17 01:28:30;;;;;;;13.77;10.27;;;18.90;99.90;;;;;;5038144;28;20131;-74
2022/08/17 01:30:58;;;;;;;15.52;10.40;;;18.90;99.90;;;;;;5054824;28;20057;-74
2022/08/17 01:33:24;;;;;;;14.95;10.68;;;18.70;99.90;;;;;;5054675;28;20076;-75
2022/08/17 01:35:50;;;;;;;18.33;11.05;;;18.90;99.90;;;;;;5054716;28;20033;-74
2022/08/17 01:38:17;;;;;;;13.27;9.57;;;18.80;99.90;;;;;;5054755;28;20086;-73
2022/08/17 01:40:50;;;;;;;14.70;10.00;;;18.80;99.90;;;;;;5054903;28;20440;-71
2022/08/17 01:43:21;;;;;;;15.32;9.93;;;18.80;99.90;;;;;;5054525;28;20097;-71
2022/08/17 01:45:50;;;;;;;13.27;9.60;;;18.80;99.90;;;;;;5039121;28;20047;-74
2022/08/17 01:48:16;;;;;;;16.00;9.65;;;18.60;99.90;;;;;;5058382;28;20040;-73
2022/08/17 01:50:44;;;;;;;14.75;9.88;;;18.70;99.90;;;;;;5041761;28;20456;-74
2022/08/17 01:53:16;;;;;;;14.52;9.55;;;18.70;99.90;;;;;;5058333;28;20045;-74
2022/08/17 01:55:51;;;;;;;9.57;7.93;;;18.70;99.90;;;;;;5041667;28;20037;-74
2022/08/17 01:58:18;;;;;;;19.08;8.60;;;18.40;99.90;;;;;;5058178;28;20044;-74
2022/08/17 02:00:47;;;;;;;10.50;8.10;;;18.40;99.90;;;;;;5058409;28;20036;-74
2022/08/17 02:03:13;;;;;;;12.05;8.63;;;18.30;99.90;;;;;;5058301;28;20048;-75
2022/08/17 02:05:39;;;;;;;12.88;8.27;;;18.30;99.90;;;;;;5058360;28;20181;-73
2022/08/17 02:08:06;;;;;;;8.85;7.65;;;18.30;99.90;;;;;;5058212;28;20047;-75
2022/08/17 02:10:32;;;;;;;11.38;8.55;;;18.20;99.90;;;;;;5058052;28;20044;-73
2022/08/17 02:12:59;;;;;;;11.45;7.88;;;18.20;99.90;;;;;;5057890;28;20039;-73
2022/08/17 02:15:24;;;;;;;11.98;7.78;;;18.30;99.90;;;;;;5057893;28;20123;-74
2022/08/17 02:17:51;;;;;;;11.07;7.70;;;18.20;99.90;;;;;;5057781;28;20544;-71
2022/08/17 02:20:16;;;;;;;10.10;7.53;;;18.30;99.90;;;;;;5058077;28;20044;-73
2022/08/17 02:22:45;;;;;;;13.73;8.55;;;18.30;99.90;;;;;;5057806;28;20090;-70
2022/08/17 02:25:15;;;;;;;13.13;9.00;;;18.20;99.90;;;;;;5057658;28;20263;-75
2022/08/17 02:27:40;;;;;;;9.80;7.78;;;18.20;99.90;;;;;;5057670;28;20110;-73
2022/08/17 02:30:09;;;;;;;9.05;7.80;;;18.10;99.90;;;;;;5057527;28;20044;-73
2022/08/17 02:32:36;;;;;;;10.45;7.93;;;18.10;99.90;;;;;;5057615;28;20404;-71
2022/08/17 02:35:02;;;;;;;10.80;7.97;;;18.10;99.90;;;;;;5041249;28;20042;-71
2022/08/17 02:37:29;;;;;;;9.10;6.55;;;18.10;99.90;;;;;;5057345;28;20047;-71
2022/08/17 02:39:58;;;;;;;10.20;8.10;;;18.00;99.90;;;;;;5057773;28;20059;-74
2022/08/17 02:42:37;;;;;;;12.52;8.00;;;18.00;99.90;;;;;;5057408;28;20419;-74
2022/08/17 02:45:10;;;;;;;11.20;8.55;;;18.00;99.90;;;;;;5057395;28;20064;-75
2022/08/17 02:47:37;;;;;;;11.07;8.23;;;17.90;99.90;;;;;;5040664;28;20403;-74
2022/08/17 02:50:04;;;;;;;10.07;8.00;;;17.90;99.90;;;;;;5057115;28;20040;-74
2022/08/17 02:52:36;;;;;;;10.20;8.00;;;17.80;99.90;;;;;;5040957;28;20049;-70
2022/08/17 02:55:05;;;;;;;9.88;7.57;;;17.80;99.90;;;;;;5040895;28;20507;-73
2022/08/17 02:57:31;;;;;;;9.45;7.70;;;17.80;99.90;;;;;;5057316;28;20459;-75
2022/08/17 02:59:57;;;;;;;12.52;7.57;;;17.70;99.90;;;;;;5040438;28;20044;-71
2022/08/17 03:02:23;;;;;;;11.23;8.80;;;17.70;99.90;;;;;;5040479;28;20047;-73
2022/08/17 03:04:48;;;;;;;10.98;7.95;;;17.70;99.90;;;;;;5040396;28;20058;-75
2022/08/17 03:07:14;;;;;;;9.73;7.88;;;17.70;99.90;;;;;;5056857;28;20040;-73
2022/08/17 03:09:41;;;;;;;9.63;7.88;;;17.70;99.90;;;;;;5023873;28;20047;-74
2022/08/17 03:12:11;;;;;;;11.57;7.85;;;17.70;99.90;;;;;;5056885;28;20143;-73
2022/08/17 03:14:41;;;;;;;11.65;8.43;;;17.70;99.90;;;;;;5057084;28;20488;-70
2022/08/17 03:17:08;;;;;;;12.23;8.93;;;17.70;99.90;;;;;;5056745;28;20079;-73
2022/08/17 03:19:34;;;;;;;11.82;8.70;;;17.70;99.90;;;;;;5040277;28;20059;-74
2022/08/17 03:22:03;;;;;;;13.93;9.77;;;17.70;99.90;;;;;;5039912;28;20040;-73
2022/08/17 03:24:29;;;;;;;10.13;8.25;;;17.70;99.90;;;;;;5040540;28;20467;-73
2022/08/17 03:26:54;;;;;;;11.35;8.30;;;17.70;99.90;;;;;;5056666;28;20067;-70
2022/08/17 03:29:20;;;;;;;12.77;8.95;;;17.70;99.90;;;;;;5056413;28;20067;-71
2022/08/17 03:31:47;;;;;;;11.88;9.45;;;17.70;99.90;;;;;;5039824;28;20051;-73
2022/08/17 03:34:16;;;;;;;14.30;9.50;;;17.70;99.90;;;;;;5056390;28;20100;-71
2022/08/17 03:36:41;;;;;;;13.25;9.80;;;17.70;99.90;;;;;;5039712;28;20040;-73
2022/08/17 03:39:08;;;;;;;12.85;8.90;;;17.70;99.90;;;;;;5036347;28;20401;-75
2022/08/17 03:41:34;;;;;;;13.95;9.70;;;17.70;99.90;;;;;;5052977;28;20041;-73
2022/08/17 03:43:59;;;;;;;13.00;9.65;;;17.70;99.90;;;;;;5052925;28;20042;-74
2022/08/17 03:57:25;;;;;;;15.32;9.93;;;17.70;99.90;;;;;;5052779;28;20496;-74
2022/08/17 03:59:52;;;;;;;13.40;9.85;;;17.60;99.90;;;;;;5036012;28;20088;-71
2022/08/17 04:02:23;;;;;;;16.23;9.80;;;17.60;99.90;;;;;;5052882;28;20051;-73
2022/08/17 04:04:49;;;;;;;13.48;9.73;;;17.60;99.90;;;;;;5052537;28;20079;-75
2022/08/17 04:07:16;;;;;;;15.85;10.35;;;17.60;99.90;;;;;;5035906;28;20048;-70
2022/08/17 04:09:42;;;;;;;15.15;9.80;;;17.60;99.90;;;;;;5051859;28;20118;-73
2022/08/17 04:12:07;;;;;;;13.48;9.85;;;17.60;99.90;;;;;;5036058;28;20032;-74
2022/08/17 04:14:37;;;;;;;12.80;8.98;;;17.60;99.90;;;;;;5052685;28;20037;-74
2022/08/17 04:17:04;;;;;;;14.07;9.30;;;17.60;99.90;;;;;;5036210;28;20071;-71
2022/08/17 04:19:30;;;;;;;15.73;10.52;;;17.60;99.90;;;;;;5036367;28;20121;-73
2022/08/17 04:21:56;;;;;;;16.35;10.35;;;17.60;99.90;;;;;;5035879;28;20079;-73
2022/08/17 04:24:23;;;;;;;16.60;11.32;;;17.60;99.90;;;;;;5052525;28;20127;-75
2022/08/17 04:26:49;;;;;;;15.70;11.15;;;17.60;99.90;;;;;;5052478;28;20442;-75
2022/08/17 04:29:15;;;;;;;17.77;10.35;;;17.60;99.90;;;;;;5052145;28;20179;-70
2022/08/17 04:31:42;;;;;;;14.55;10.50;;;17.70;99.90;;;;;;5052057;28;20076;-73
2022/08/17 04:34:08;;;;;;;13.13;9.32;;;17.70;99.90;;;;;;5052317;28;20075;-73
2022/08/17 04:36:34;;;;;;;15.10;10.10;;;17.70;99.90;;;;;;5035699;28;20040;-75
2022/08/17 04:39:00;;;;;;;17.15;10.35;;;17.80;99.90;;;;;;5037983;28;20097;-75
2022/08/17 04:44:11;;;;;;;17.05;11.30;;;17.70;99.90;;;;;;5031994;28;20091;-74
2022/08/17 04:46:37;;;;;;;17.63;11.30;;;17.80;99.90;;;;;;5031966;28;20440;-75
2022/08/17 04:49:07;;;;;;;16.15;11.13;;;17.80;99.90;;;;;;5015415;28;20041;-74
2022/08/17 04:51:38;;;;;;;18.13;11.13;;;17.90;99.90;;;;;;5031707;28;20033;-75
2022/08/17 04:54:08;;;;;;;22.63;11.77;;;17.90;99.90;;;;;;5031871;28;20040;-75
2022/08/17 04:56:34;;;;;;;17.92;12.23;;;17.90;99.90;;;;;;5032173;28;20441;-71
2022/08/17 04:59:15;;;;;;;18.30;11.60;;;17.90;99.90;;;;;;5015631;28;20197;-73
2022/08/17 05:01:42;;;;;;;22.13;12.27;;;17.90;99.90;;;;;;5031830;28;20128;-74
2022/08/17 05:04:12;;;;;;;21.95;11.52;;;18.00;99.90;;;;;;5015267;28;20045;-75
2022/08/17 05:06:37;;;;;;;16.15;11.93;;;18.00;99.90;;;;;;5015326;28;20128;-75
2022/08/17 05:09:04;;;;;;;20.50;12.15;;;18.00;99.90;;;;;;5015125;28;20469;-74
2022/08/17 05:11:30;;;;;;;19.02;12.77;;;18.10;99.90;;;;;;5031731;28;20076;-74
2022/08/17 05:13:57;;;;;;;17.27;12.02;;;18.10;99.90;;;;;;5031670;28;20156;-75
2022/08/17 05:16:24;;;;;;;18.70;12.15;;;18.10;99.90;;;;;;5031948;28;20034;-74
2022/08/17 05:18:50;;;;;;;17.27;12.13;;;18.10;99.90;;;;;;5015352;28;20046;-74
2022/08/17 05:21:17;;;;;;;16.90;11.82;;;18.20;99.90;;;;;;5017328;28;20128;-74
2022/08/17 05:23:43;;;;;;;19.98;12.85;;;18.20;99.90;;;;;;5035943;28;20088;-74
2022/08/17 05:26:12;;;;;;;19.80;12.68;;;18.20;99.90;;;;;;5035588;28;20045;-75
2022/08/17 05:28:38;;;;;;;18.08;12.43;;;18.10;99.90;;;;;;5035489;28;20056;-75
2022/08/17 05:31:04;;;;;;;17.60;12.13;;;18.10;99.90;;;;;;5018895;28;20046;-76
2022/08/17 05:33:35;;;;;;;21.77;12.63;;;18.20;99.90;;;;;;5019239;28;20103;-74
2022/08/17 05:36:04;;;;;;;19.15;13.05;;;18.20;99.90;;;;;;5035438;28;20045;-76
2022/08/17 05:38:30;;;;;;;18.70;11.98;;;18.30;99.90;;;;;;5035247;28;20046;-74
2022/08/17 05:40:57;;;;;;;19.88;11.95;;;18.30;99.90;;;;;;5018912;28;20042;-77
2022/08/17 05:43:32;;;;;;;17.73;11.43;;;18.30;99.90;;;;;;5035268;28;20050;-76
2022/08/17 05:46:22;;;;;;;17.60;12.13;;;18.30;99.90;;;;;;5035215;28;20052;-74
2022/08/17 05:48:51;;;;;;;21.15;12.60;;;18.40;99.90;;;;;;5036274;28;20045;-73
2022/08/17 05:51:43;;;;;;;18.23;11.80;;;18.40;99.90;;;;;;5036019;28;20033;-71
2022/08/17 05:54:29;;;;;;;18.45;12.45;;;18.40;99.90;;;;;;5035310;28;20084;-74
2022/08/17 05:57:42;;;;;;;16.02;11.02;;;18.40;99.90;;;;;;5035294;28;20075;-76
2022/08/17 06:00:27;;;;;;;18.48;12.45;;;18.40;99.90;;;;;;4984679;28;20053;-75
2022/08/17 06:03:14;;;;;;;15.75;10.25;;;18.40;99.90;;;;;;5019440;28;20037;-78
2022/08/17 06:05:53;;;;;;;21.55;11.73;;;18.50;99.90;;;;;;5019869;28;20045;-75
2022/08/17 06:08:49;;;;;;;18.63;12.77;;;18.50;99.90;;;;;;5018696;28;20459;-75
2022/08/17 06:11:58;;;;;;;18.25;11.98;;;18.50;99.90;;;;;;5034811;28;20033;-71
2022/08/17 06:14:39;;;;;;;24.48;12.30;;;18.50;99.90;;;;;;5002311;28;20084;-77
2022/08/17 06:17:10;;;;;;;22.67;12.55;;;18.50;99.90;;;;;;5035145;28;20037;-76
2022/08/17 06:19:44;;;;;;;21.15;12.70;;;18.50;99.90;;;;;;5019134;28;20353;-75
2022/08/17 06:22:14;;;;;;;20.45;12.60;;;18.50;99.90;;;;;;5035811;28;20712;-76
2022/08/17 06:24:42;;;;;;;26.23;13.02;;;18.50;99.90;;;;;;5034629;28;20138;-76
2022/08/17 06:27:18;;;;;;;20.42;12.48;;;18.50;99.90;;;;;;5018927;28;20041;-77
2022/08/17 06:30:19;;;;;;;20.15;13.65;;;18.50;99.90;;;;;;5034856;28;20038;-70
2022/08/17 06:32:47;;;;;;;20.58;12.80;;;18.60;99.90;;;;;;5033966;28;20440;-73
2022/08/17 06:35:25;;;;;;;19.42;12.32;;;18.60;99.90;;;;;;5017982;28;20125;-75
2022/08/17 06:38:15;;;;;;;21.40;13.05;;;18.60;99.90;;;;;;5034918;28;20133;-75
2022/08/17 06:41:13;;;;;;;19.40;11.45;;;18.70;99.90;;;;;;5034604;28;20091;-72
2022/08/17 06:44:02;;;;;;;23.48;13.85;;;18.70;99.90;;;;;;5024382;28;20140;-71
2022/08/17 06:46:49;;;;;;;22.08;13.65;;;18.80;99.90;;;;;;5034936;28;20049;-75
2022/08/17 06:49:25;;;;;;;18.20;12.32;;;18.90;99.90;;;;;;5034346;28;20132;-76
2022/08/17 06:52:16;;;;;;;20.60;13.07;;;18.90;99.90;;;;;;5033945;28;20484;-70
2022/08/17 06:54:58;;;;;;;22.67;14.25;;;19.00;99.90;;;;;;5035176;28;20038;-72
2022/08/17 06:57:30;;;;;;;23.48;14.18;;;19.00;99.90;;;;;;5035018;28;20037;-70
2022/08/17 07:00:37;;;;;;;20.00;13.30;;;19.00;99.90;;;;;;5034111;28;20409;-71
2022/08/17 07:03:14;;;;;;;21.55;13.90;;;19.10;99.90;;;;;;4957922;28;20086;-70
2022/08/17 07:05:57;;;;;;;21.33;13.38;;;19.10;99.90;;;;;;5010635;28;20083;-75
2022/08/17 07:08:45;;;;;;;19.50;13.00;;;19.20;99.90;;;;;;5034265;28;20493;-75
2022/08/17 07:11:19;;;;;;;22.13;13.43;;;19.10;99.90;;;;;;5017164;28;20052;-70
2022/08/17 07:14:09;;;;;;;20.45;13.20;;;19.20;99.90;;;;;;5033624;28;20053;-74
2022/08/17 07:16:45;;;;;;;21.15;13.05;;;19.20;99.90;;;;;;5033783;28;20447;-75
2022/08/17 07:19:16;;;;;;;23.90;13.82;;;19.20;99.90;;;;;;5033768;28;20049;-72
2022/08/17 07:21:50;;;;;;;24.23;15.32;;;19.30;99.90;;;;;;5017114;28;20479;-69
2022/08/17 07:24:46;;;;;;;21.23;12.75;;;19.30;99.90;;;;;;5033703;28;20103;-75
2022/08/17 07:27:26;;;;;;;21.05;12.77;;;19.30;99.90;;;;;;5017101;28;20045;-73
2022/08/17 07:30:23;;;;;;;20.35;13.05;;;19.40;99.90;;;;;;5033522;28;20124;-74
2022/08/17 07:33:08;;;;;;;22.00;12.77;;;19.40;99.90;;;;;;5025732;28;20038;-70
2022/08/17 07:35:39;;;;;;;21.70;14.10;;;19.40;99.90;;;;;;5033501;28;20029;-74
2022/08/17 07:38:14;;;;;;;19.48;11.30;;;19.50;99.90;;;;;;5033034;28;20057;-75
2022/08/17 07:41:02;;;;;;;20.63;12.77;;;19.50;99.90;;;;;;5033120;28;20128;-75
2022/08/17 07:43:39;;;;;;;19.83;12.70;;;19.50;99.90;;;;;;5032184;28;20103;-70
2022/08/17 07:49:06;;;;;;;21.75;12.05;;;19.60;99.90;;;;;;5032875;28;20050;-72
2022/08/17 07:51:38;;;;;;;23.27;12.90;;;19.70;99.90;;;;;;5032984;28;20046;-71
2022/08/17 07:54:38;;;;;;;18.45;11.95;;;19.80;99.90;;;;;;5016290;28;20037;-75
2022/08/17 07:57:13;;;;;;;19.80;11.25;;;19.80;99.90;;;;;;5032729;28;20111;-75
2022/08/17 08:00:04;;;;;;;17.17;11.32;;;19.90;99.90;;;;;;5032754;28;20037;-77
2022/08/17 08:02:39;;;;;;;18.10;11.15;;;20.00;99.90;;;;;;5032994;28;20045;-77
2022/08/17 08:05:22;;;;;;;14.90;9.98;;;20.20;99.90;;;;;;5032693;28;20406;-71
2022/08/17 08:07:53;;;;;;;15.88;9.52;;;20.40;99.90;;;;;;5032605;28;20045;-73
2022/08/17 08:10:34;;;;;;;17.70;10.73;;;20.50;99.90;;;;;;5032410;28;20038;-70
2022/08/17 08:13:07;;;;;;;15.40;9.18;;;20.60;99.90;;;;;;5032476;28;20033;-74
2022/08/17 08:15:48;;;;;;;18.08;9.82;;;20.80;99.90;;;;;;5016074;28;20116;-72
2022/08/17 08:18:35;;;;;;;13.70;9.50;;;20.80;99.90;;;;;;5015906;28;20037;-76
2022/08/17 08:21:07;;;;;;;18.08;11.00;;;20.90;99.90;;;;;;5032469;28;20089;-74
2022/08/17 08:23:42;;;;;;;19.17;10.63;;;20.90;99.90;;;;;;5015906;28;20116;-76
2022/08/17 08:26:45;;;;;;;20.02;12.00;;;21.00;99.90;;;;;;5016121;28;20049;-71
2022/08/17 08:29:30;;;;;;;17.13;11.48;;;21.00;99.90;;;;;;5015716;28;20056;-74
2022/08/17 08:32:08;;;;;;;15.88;10.63;;;21.30;99.90;;;;;;5032150;28;20083;-74
2022/08/17 08:35:01;;;;;;;14.68;9.13;;;21.50;99.90;;;;;;5032189;28;20041;-74
2022/08/17 08:37:51;;;;;;;17.70;10.30;;;21.80;99.90;;;;;;5034173;28;20060;-72
2022/08/17 08:41:15;;;;;;;18.35;9.77;;;22.00;99.90;;;;;;5055312;28;20049;-74
2022/08/17 08:43:40;;;;;;;14.32;9.70;;;22.10;99.90;;;;;;4975788;28;20046;-74
2022/08/17 08:46:27;;;;;;;17.58;10.02;;;22.20;99.90;;;;;;4992015;28;20533;-74
2022/08/17 08:49:28;;;;;;;16.85;10.07;;;22.20;99.90;;;;;;5017843;28;20049;-76
2022/08/17 08:51:59;;;;;;;16.75;10.30;;;22.20;99.90;;;;;;5054993;28;20049;-72
2022/08/17 08:54:32;;;;;;;17.27;10.93;;;22.10;99.90;;;;;;5054899;28;20056;-76
2022/08/17 08:57:10;;;;;;;15.13;9.85;;;22.20;99.90;;;;;;5038454;28;20040;-76
2022/08/17 09:00:11;;;;;;;15.07;9.18;;;22.30;99.90;;;;;;5055110;28;20036;-74
2022/08/17 09:03:08;;;;;;;15.70;9.48;;;22.40;99.90;;;;;;5055172;28;20435;-73
2022/08/17 09:05:52;;;;;;;15.13;9.38;;;22.50;99.90;;;;;;5038369;28;20047;-78
2022/08/17 09:08:46;;;;;;;17.38;8.93;;;22.50;99.90;;;;;;5038932;28;20131;-75
2022/08/17 09:11:39;;;;;;;12.77;8.80;;;22.40;99.90;;;;;;5054909;28;20127;-73
2022/08/17 09:14:22;;;;;;;13.98;9.13;;;22.40;99.90;;;;;;5055762;28;20047;-75
2022/08/17 09:17:11;;;;;;;15.82;9.27;;;22.30;99.90;;;;;;5055170;28;20036;-76
2022/08/17 09:19:58;;;;;;;11.55;8.88;;;22.10;99.90;;;;;;5054918;28;20060;-74
2022/08/17 09:22:32;;;;;;;19.83;9.45;;;22.10;99.90;;;;;;5055220;28;20044;-73
2022/08/17 09:25:27;;;;;;;14.20;9.20;;;22.00;99.90;;;;;;5055025;28;20076;-76
2022/08/17 09:28:05;;;;;;;17.77;10.43;;;22.00;99.90;;;;;;5036537;28;20500;-75
2022/08/17 09:31:01;;;;;;;15.48;9.68;;;21.90;99.90;;;;;;5038490;28;20442;-76
2022/08/17 09:33:30;;;;;;;14.25;9.77;;;21.90;99.90;;;;;;5038732;28;20558;-73
2022/08/17 09:36:01;;;;;;;18.17;9.27;;;21.80;99.90;;;;;;5055775;28;20033;-75
2022/08/17 09:38:40;;;;;;;15.50;9.77;;;21.90;99.90;;;;;;5038571;28;20541;-76
2022/08/17 09:41:44;;;;;;;22.10;9.65;;;22.00;99.90;;;;;;5054900;28;20377;-76
2022/08/17 09:44:17;;;;;;;15.35;8.57;;;22.10;99.90;;;;;;5017769;28;20055;-77
2022/08/17 09:47:21;;;;;;;20.48;9.82;;;22.20;99.90;;;;;;5056067;28;20065;-76
2022/08/17 09:49:55;;;;;;;15.15;9.02;;;22.30;99.90;;;;;;5025962;28;20045;-75
2022/08/17 09:52:24;;;;;;;18.73;10.13;;;22.40;99.90;;;;;;5038409;28;20066;-78
2022/08/17 09:54:53;;;;;;;23.10;12.43;;;22.40;99.90;;;;;;5055631;28;20151;-73
2022/08/17 09:57:46;;;;;;;21.02;11.85;;;22.50;99.90;;;;;;5038847;28;20048;-73
2022/08/17 10:00:20;;;;;;;21.10;12.05;;;22.70;99.90;;;;;;5054526;28;20101;-73
2022/08/17 10:03:08;;;;;;;22.98;12.02;;;22.70;99.90;;;;;;5056043;28;20380;-77
2022/08/17 10:05:46;;;;;;;20.02;11.90;;;23.00;99.90;;;;;;5040976;28;20040;-75
2022/08/17 10:08:37;;;;;;;23.25;12.52;;;23.30;99.90;;;;;;5041796;28;20066;-74
2022/08/17 10:14:55;;;;;;;22.23;12.13;;;23.60;99.90;;;;;;5025462;28;20071;-74
2022/08/17 10:18:08;;;;;;;18.67;11.60;;;23.70;99.90;;;;;;5041584;28;20171;-75
2022/08/17 10:20:48;;;;;;;23.95;11.15;;;23.70;99.90;;;;;;4978999;28;20089;-78
2022/08/17 10:26:13;;;;;;;18.83;10.98;;;23.60;99.90;;;;;;5058337;28;20080;-77
2022/08/17 10:28:39;;;;;;;19.52;11.00;;;23.50;99.90;;;;;;5058426;28;20050;-77
2022/08/17 10:31:08;;;;;;;21.85;11.50;;;23.50;99.90;;;;;;5041937;28;20123;-76
2022/08/17 10:34:10;;;;;;;17.17;10.15;;;23.40;99.90;;;;;;5057599;28;20119;-73
2022/08/17 10:37:10;;;;;;;20.85;11.45;;;23.40;99.90;;;;;;5041073;28;20458;-75
2022/08/17 10:39:58;;;;;;;22.00;10.77;;;23.40;99.90;;;;;;5039275;28;20053;-77
2022/08/17 10:42:35;;;;;;;21.00;11.07;;;23.30;99.90;;;;;;5034882;28;20523;-76
2022/08/17 10:45:14;;;;;;;17.33;10.57;;;23.20;99.90;;;;;;5035011;28;20050;-76
2022/08/17 10:48:05;;;;;;;20.52;10.77;;;23.20;99.90;;;;;;5034646;28;20045;-77
2022/08/17 10:50:43;;;;;;;19.08;11.57;;;23.20;99.90;;;;;;5034487;28;20133;-73
2022/08/17 10:53:09;;;;;;;16.20;9.55;;;23.20;99.90;;;;;;5017991;28;20477;-76
2022/08/17 10:55:35;;;;;;;15.82;10.20;;;23.20;99.90;;;;;;5017719;28;20088;-75
2022/08/17 10:58:20;;;;;;;19.20;10.20;;;23.20;99.90;;;;;;5017355;28;20041;-73
2022/08/17 11:00:52;;;;;;;17.08;10.18;;;23.20;99.90;;;;;;5034144;28;20104;-75
2022/08/17 11:03:23;;;;;;;16.95;10.68;;;23.20;99.90;;;;;;5017347;28;20382;-72
2022/08/17 11:06:41;;;;;;;16.38;10.07;;;23.30;99.90;;;;;;5034040;28;20607;-82
2022/08/17 11:09:09;;;;;;;17.83;10.32;;;23.40;99.90;;;;;;5033749;28;20041;-76
2022/08/17 11:11:46;;;;;;;21.42;10.30;;;23.50;99.90;;;;;;5017204;28;20459;-75
2022/08/17 11:14:29;;;;;;;15.75;8.50;;;23.60;99.90;;;;;;5033739;28;20041;-77
2022/08/17 11:17:50;;;;;;;14.55;9.15;;;23.70;99.90;;;;;;5033721;28;20037;-76
2022/08/17 11:20:44;;;;;;;13.40;8.65;;;24.00;99.90;;;;;;4976731;28;20046;-78
2022/08/17 11:23:49;;;;;;;14.23;9.07;;;24.20;99.90;;;;;;5017724;28;20448;-78
2022/08/17 11:26:29;;;;;;;14.10;8.25;;;24.30;99.90;;;;;;5016938;28;20046;-77
2022/08/17 11:29:04;;;;;;;;;;;24.30;99.90;;;;;;5017432;28;20136;-77
2022/08/17 11:31:35;;;;;;;16.35;9.85;;;24.30;99.90;;;;;;5033309;28;20288;-79
2022/08/17 11:34:12;;;;;;;14.38;8.70;;;24.30;99.90;;;;;;5016885;28;20041;-81
2022/08/17 11:36:47;;;;;;;14.65;9.25;;;24.20;99.90;;;;;;5033270;28;20041;-78
2022/08/17 11:39:18;;;;;;;16.23;8.48;;;24.20;99.90;;;;;;5016642;28;20088;-77
2022/08/17 11:41:56;;;;;;;16.23;9.55;;;24.20;99.90;;;;;;5033166;28;20073;-76
2022/08/17 11:44:56;;;;;;;15.93;9.93;;;24.10;99.90;;;;;;5016822;28;20041;-78
2022/08/17 11:53:36;;;;;;;16.88;9.32;;;23.90;99.90;;;;;;5033009;28;20049;-77
2022/08/17 11:56:50;;;;;;;12.65;8.45;;;23.80;99.90;;;;;;5032953;28;20033;-80
2022/08/17 11:59:46;;;;;;;14.15;9.02;;;24.00;99.90;;;;;;5007749;28;20128;-80
2022/08/17 12:02:29;;;;;;;14.57;9.98;;;22.60;99.90;;;;;;5016169;28;20072;-75
2022/08/17 12:05:08;;;;;;;12.15;8.52;;;23.90;99.90;;;;;;5016136;28;20444;-75
2022/08/17 12:07:45;;;;;;;17.40;8.95;;;23.90;99.90;;;;;;5032789;28;20045;-75
2022/08/17 12:10:18;;;;;;;15.60;9.20;;;24.00;99.90;;;;;;5032529;28;20052;-78
2022/08/17 12:12:45;;;;;;;14.57;9.20;;;23.90;99.90;;;;;;5032847;28;20037;-74
2022/08/17 12:15:18;;;;;;;16.00;10.18;;;24.00;99.90;;;;;;5032856;28;20061;-77
2022/08/17 12:17:55;;;;;;;15.20;10.43;;;24.00;99.90;;;;;;5032627;28;20091;-77
2022/08/17 12:20:36;;;;;;;15.10;9.43;;;24.00;99.90;;;;;;5016421;28;20081;-77
2022/08/17 12:23:11;;;;;;;13.40;10.20;;;24.00;99.90;;;;;;5032494;28;20400;-75
2022/08/17 12:25:40;;;;;;;16.55;10.40;;;23.90;99.90;;;;;;5016173;28;20045;-77
2022/08/17 12:28:38;;;;;;;21.42;10.50;;;23.90;99.90;;;;;;5016212;28;20107;-75
2022/08/17 12:31:10;;;;;;;15.40;9.68;;;23.90;99.90;;;;;;5031063;28;20054;-72
2022/08/17 12:33:42;;;;;;;20.08;9.95;;;23.90;99.90;;;;;;5032326;28;20077;-78
2022/08/17 12:36:14;;;;;;;18.70;11.13;;;23.90;99.90;;;;;;5016031;28;20037;-72
2022/08/17 12:38:47;;;;;;;16.33;10.30;;;24.00;99.90;;;;;;5032476;28;20131;-78
2022/08/17 12:41:33;;;;;;;16.33;9.55;;;24.10;99.90;;;;;;5032212;28;20049;-75
2022/08/17 12:44:20;;;;;;;16.95;10.10;;;24.10;99.90;;;;;;5015673;28;20051;-77
2022/08/17 12:47:01;;;;;;;16.00;9.02;;;24.20;99.90;;;;;;5016031;28;20045;-77
2022/08/17 12:49:34;;;;;;;15.50;8.90;;;24.30;99.90;;;;;;5032088;28;20100;-76
2022/08/17 12:52:13;;;;;;;14.98;8.70;;;24.30;99.90;;;;;;5032345;28;20056;-77
2022/08/17 12:54:54;;;;;;;13.13;9.17;;;24.40;99.90;;;;;;5032129;28;20079;-75
2022/08/17 12:57:39;;;;;;;;;;;24.30;99.90;;;;;;5032225;28;20048;-75
2022/08/17 13:00:20;;;;;;;15.05;8.73;;;24.30;99.90;;;;;;5014915;28;20335;-77
2022/08/17 13:03:20;;;;;;;14.20;9.40;;;24.40;99.90;;;;;;5015713;28;20477;-77
2022/08/17 13:06:06;;;;;;;12.38;7.90;;;24.20;99.90;;;;;;4994242;28;20045;-76
2022/08/17 13:08:38;;;;;;;13.27;8.50;;;24.30;99.90;;;;;;5015389;28;20171;-76
2022/08/17 13:11:24;;;;;;;15.07;9.02;;;24.30;99.90;;;;;;5031644;28;20124;-74
2022/08/17 13:13:54;;;;;;;15.50;9.73;;;24.30;99.90;;;;;;5031992;28;20041;-76
2022/08/17 13:16:29;;;;;;;20.38;11.02;;;24.20;99.90;;;;;;5031926;28;20045;-72
2022/08/17 13:19:20;;;;;;;14.23;9.73;;;24.10;99.90;;;;;;5015263;28;20041;-72
2022/08/17 13:21:53;;;;;;;15.43;10.07;;;24.00;99.90;;;;;;5015781;28;20053;-76
2022/08/17 13:24:23;;;;;;;14.45;9.40;;;24.00;99.90;;;;;;5031885;28;20394;-77
2022/08/17 13:27:01;;;;;;;16.05;10.48;;;24.00;99.90;;;;;;5015556;28;20072;-75
2022/08/17 13:29:38;;;;;;;15.88;9.82;;;24.10;99.90;;;;;;5031863;28;20056;-77
2022/08/17 13:32:06;;;;;;;16.27;10.65;;;24.10;99.90;;;;;;5031444;28;20041;-77
2022/08/17 13:34:53;;;;;;;19.25;11.75;;;24.10;99.90;;;;;;5031472;28;20041;-75
2022/08/17 13:37:28;;;;;;;15.52;10.32;;;24.10;99.90;;;;;;5031326;28;20080;-74
2022/08/17 13:39:58;;;;;;;15.35;9.73;;;24.10;99.90;;;;;;5031679;28;20377;-77
2022/08/17 13:42:39;;;;;;;18.38;10.60;;;24.20;99.90;;;;;;5017284;28;20041;-76
2022/08/17 13:48:07;;;;;;;19.35;10.63;;;24.10;99.90;;;;;;5035554;28;20048;-73
2022/08/17 13:50:39;;;;;;;15.70;9.82;;;24.10;99.90;;;;;;5035184;28;20037;-72